Terminal Aerodrome Forecast
Issued by NWS Blacksburg, VA

Current Version | Previous Version | Graphics & Text | Print | Product List | Glossary On
Versions: 1 2 3 4 5 6 7 8 9 10 11 12 13 14 15 16 17 18 19 20 21 22 23 24 25 26 27 28 29 30 31 32 33 34 35 36
000
FTUS41 KRNK 231133
TAFBLF
TAF
KBLF 231133Z 2312/2412 28005KT P6SM OVC006
     FM231330 29005KT P6SM SCT007 OVC013
     FM231500 29006KT P6SM VCSH SCT013 OVC025
     FM231800 31007KT P6SM VCTS BKN030CB OVC045
     FM240100 32005KT 4SM BR VCSH SCT007 OVC025
     FM240600 VRB04KT 3SM -DZ BR OVC004=

USA.gov is the U.S. government's official web portal to all federal, state and local government web resources and services.